AAL630 KDCA-KLGA
Flight info
| Callsign | AAL630 |
|---|---|
| Flight time | 0h 34m |
| Altitude | 21000 |
| Route | DOCTR5 AGARD SPEAK PROUD2 |
| Aircraft | B738/M-SDE2E3FGHIRWXY/LB1 |
Departure
| Time | 2026-05-07 20:45 |
|---|---|
| Airport | Ronald Reagan Washington National Airport (KDCA) |
Arrival
| Time | 2026-05-07 21:20 |
|---|---|
| Airport | LaGuardia Airport (KLGA) |
| Time | Latitude | Longitude | Altitude | Speed | Heading |
|---|---|---|---|---|---|
| 2026-05-07 20:24 | 38.85356 | -77.04151 | 23 ft | 0 kts | 348° |
| 2026-05-07 20:32 | 38.85342 | -77.04147 | 26 ft | 3 kts | 348° |
| 2026-05-07 20:32 | 38.85323 | -77.04146 | 28 ft | 3 kts | 17° |
| 2026-05-07 20:32 | 38.85306 | -77.04158 | 23 ft | 3 kts | 50° |
| 2026-05-07 20:32 | 38.85296 | -77.04179 | 27 ft | 1 kts | 65° |
| 2026-05-07 20:33 | 38.85296 | -77.04180 | 27 ft | 0 kts | 65° |
| 2026-05-07 20:39 | 38.85300 | -77.04168 | 25 ft | 5 kts | 67° |
| 2026-05-07 20:39 | 38.85320 | -77.04094 | 23 ft | 9 kts | 73° |
| 2026-05-07 20:40 | 38.85338 | -77.04016 | 23 ft | 8 kts | 67° |
| 2026-05-07 20:40 | 38.85377 | -77.03988 | 25 ft | 7 kts | 357° |
| 2026-05-07 20:40 | 38.85426 | -77.04004 | 24 ft | 8 kts | 356° |
| 2026-05-07 20:40 | 38.85500 | -77.04014 | 23 ft | 13 kts | 348° |
| 2026-05-07 20:41 | 38.85604 | -77.04037 | 25 ft | 17 kts | 356° |
| 2026-05-07 20:41 | 38.85713 | -77.04047 | 27 ft | 16 kts | 356° |
| 2026-05-07 20:41 | 38.85838 | -77.04061 | 24 ft | 20 kts | 354° |
| 2026-05-07 20:41 | 38.85926 | -77.04038 | 24 ft | 9 kts | 72° |
| 2026-05-07 20:42 | 38.85955 | -77.03976 | 25 ft | 9 kts | 30° |
| 2026-05-07 20:42 | 38.86033 | -77.03945 | 26 ft | 13 kts | 15° |
| 2026-05-07 20:42 | 38.86092 | -77.03902 | 22 ft | 7 kts | 54° |
| 2026-05-07 20:42 | 38.86093 | -77.03887 | 23 ft | 2 kts | 105° |
| 2026-05-07 20:43 | 38.86073 | -77.03870 | 24 ft | 5 kts | 166° |
| 2026-05-07 20:43 | 38.86043 | -77.03865 | 22 ft | 0 kts | 174° |
| 2026-05-07 20:44 | 38.85910 | -77.03852 | 26 ft | 55 kts | 175° |
| 2026-05-07 20:44 | 38.85267 | -77.03788 | 23 ft | 128 kts | 175° |
| 2026-05-07 20:45 | 38.84196 | -77.03705 | 253 ft | 168 kts | 178° |
| 2026-05-07 20:45 | 38.83010 | -77.03588 | 1046 ft | 176 kts | 173° |
| 2026-05-07 20:45 | 38.81724 | -77.03316 | 1562 ft | 202 kts | 171° |
| 2026-05-07 20:45 | 38.80248 | -77.02968 | 1833 ft | 227 kts | 171° |
| 2026-05-07 20:46 | 38.78652 | -77.02602 | 2347 ft | 239 kts | 171° |
| 2026-05-07 20:46 | 38.77006 | -77.02104 | 2922 ft | 249 kts | 155° |
| 2026-05-07 20:46 | 38.75674 | -77.00679 | 3643 ft | 257 kts | 123° |
| 2026-05-07 20:46 | 38.75126 | -76.98469 | 4232 ft | 269 kts | 90° |
| 2026-05-07 20:47 | 38.75114 | -76.96034 | 4984 ft | 278 kts | 87° |
| 2026-05-07 20:47 | 38.75237 | -76.93536 | 5794 ft | 282 kts | 73° |
| 2026-05-07 20:47 | 38.76086 | -76.91345 | 6592 ft | 281 kts | 46° |
| 2026-05-07 20:47 | 38.77582 | -76.89720 | 7267 ft | 284 kts | 27° |
| 2026-05-07 20:48 | 38.79301 | -76.88414 | 8000 ft | 292 kts | 25° |
| 2026-05-07 20:48 | 38.81083 | -76.87083 | 8701 ft | 300 kts | 24° |
| 2026-05-07 20:48 | 38.82906 | -76.85695 | 9436 ft | 309 kts | 24° |
| 2026-05-07 20:48 | 38.84782 | -76.84249 | 10103 ft | 317 kts | 24° |
| 2026-05-07 20:49 | 38.86542 | -76.82441 | 10425 ft | 349 kts | 47° |
| 2026-05-07 20:49 | 38.87804 | -76.79636 | 10640 ft | 376 kts | 62° |
| 2026-05-07 20:49 | 38.88933 | -76.76524 | 11033 ft | 392 kts | 64° |
| 2026-05-07 20:49 | 38.90081 | -76.73294 | 11638 ft | 400 kts | 64° |
| 2026-05-07 20:50 | 38.91260 | -76.70035 | 12341 ft | 405 kts | 64° |
| 2026-05-07 20:50 | 38.92472 | -76.66759 | 13033 ft | 410 kts | 63° |
| 2026-05-07 20:50 | 38.93720 | -76.63421 | 13680 ft | 417 kts | 63° |
| 2026-05-07 20:50 | 38.94975 | -76.60029 | 14293 ft | 422 kts | 65° |
| 2026-05-07 20:51 | 38.96139 | -76.56543 | 14970 ft | 426 kts | 67° |
| 2026-05-07 20:51 | 38.97258 | -76.53004 | 15607 ft | 430 kts | 67° |
| 2026-05-07 20:51 | 38.98388 | -76.49431 | 16236 ft | 434 kts | 67° |
| 2026-05-07 20:51 | 38.99551 | -76.45820 | 16842 ft | 439 kts | 66° |
| 2026-05-07 20:52 | 39.00724 | -76.42177 | 17454 ft | 443 kts | 69° |
| 2026-05-07 20:52 | 39.01490 | -76.38323 | 18037 ft | 447 kts | 83° |
| 2026-05-07 20:52 | 39.01877 | -76.34344 | 18581 ft | 451 kts | 85° |
| 2026-05-07 20:52 | 39.02207 | -76.30307 | 19041 ft | 457 kts | 86° |
| 2026-05-07 20:53 | 39.02547 | -76.26220 | 19478 ft | 463 kts | 85° |
| 2026-05-07 20:53 | 39.02921 | -76.22066 | 19935 ft | 469 kts | 85° |
| 2026-05-07 20:53 | 39.03321 | -76.17896 | 20387 ft | 474 kts | 85° |
| 2026-05-07 20:53 | 39.03742 | -76.13654 | 20821 ft | 480 kts | 85° |
| 2026-05-07 20:54 | 39.04166 | -76.09378 | 20893 ft | 482 kts | 85° |
| 2026-05-07 20:54 | 39.04553 | -76.05103 | 20894 ft | 481 kts | 88° |
| 2026-05-07 20:54 | 39.04784 | -76.00807 | 20909 ft | 481 kts | 90° |
| 2026-05-07 20:54 | 39.04934 | -75.96557 | 20902 ft | 481 kts | 91° |
| 2026-05-07 20:55 | 39.05074 | -75.92249 | 20907 ft | 482 kts | 91° |
| 2026-05-07 20:55 | 39.05235 | -75.87872 | 20898 ft | 483 kts | 91° |
| 2026-05-07 20:55 | 39.05414 | -75.83568 | 20884 ft | 484 kts | 90° |
| 2026-05-07 20:55 | 39.05630 | -75.79230 | 20879 ft | 486 kts | 86° |
| 2026-05-07 20:56 | 39.06492 | -75.75030 | 20884 ft | 489 kts | 68° |
| 2026-05-07 20:56 | 39.08172 | -75.71250 | 20861 ft | 485 kts | 47° |
| 2026-05-07 20:56 | 39.10460 | -75.68095 | 20886 ft | 481 kts | 40° |
| 2026-05-07 20:56 | 39.12842 | -75.65069 | 20871 ft | 481 kts | 39° |
| 2026-05-07 20:57 | 39.15203 | -75.62084 | 20865 ft | 481 kts | 40° |
| 2026-05-07 20:57 | 39.17569 | -75.59031 | 20857 ft | 482 kts | 41° |
| 2026-05-07 20:57 | 39.19938 | -75.55909 | 20865 ft | 482 kts | 41° |
| 2026-05-07 20:57 | 39.22247 | -75.52836 | 20863 ft | 483 kts | 41° |
| 2026-05-07 20:58 | 39.24720 | -75.49924 | 20855 ft | 476 kts | 31° |
| 2026-05-07 20:58 | 39.27408 | -75.47470 | 20874 ft | 472 kts | 27° |
| 2026-05-07 20:58 | 39.30144 | -75.45151 | 20878 ft | 471 kts | 26° |
| 2026-05-07 20:58 | 39.32897 | -75.42843 | 20872 ft | 471 kts | 26° |
| 2026-05-07 20:59 | 39.35628 | -75.40510 | 20875 ft | 470 kts | 27° |
| 2026-05-07 20:59 | 39.38339 | -75.38144 | 20875 ft | 469 kts | 28° |
| 2026-05-07 20:59 | 39.41024 | -75.35764 | 20884 ft | 469 kts | 28° |
| 2026-05-07 20:59 | 39.43707 | -75.33368 | 20885 ft | 469 kts | 28° |
| 2026-05-07 21:00 | 39.46391 | -75.30967 | 20879 ft | 468 kts | 28° |
| 2026-05-07 21:00 | 39.49066 | -75.28577 | 20867 ft | 467 kts | 28° |
| 2026-05-07 21:00 | 39.51747 | -75.26170 | 20870 ft | 468 kts | 29° |
| 2026-05-07 21:00 | 39.54359 | -75.23750 | 20877 ft | 469 kts | 30° |
| 2026-05-07 21:01 | 39.56996 | -75.21265 | 20870 ft | 469 kts | 30° |
| 2026-05-07 21:01 | 39.59615 | -75.18784 | 20851 ft | 459 kts | 30° |
| 2026-05-07 21:01 | 39.62160 | -75.16375 | 20851 ft | 445 kts | 30° |
| 2026-05-07 21:01 | 39.64622 | -75.14056 | 20594 ft | 437 kts | 29° |
| 2026-05-07 21:02 | 39.67112 | -75.11724 | 19936 ft | 441 kts | 30° |
| 2026-05-07 21:02 | 39.69610 | -75.09445 | 19447 ft | 435 kts | 28° |
| 2026-05-07 21:02 | 39.72098 | -75.07299 | 18912 ft | 426 kts | 27° |
| 2026-05-07 21:02 | 39.74568 | -75.05213 | 18302 ft | 420 kts | 27° |
| 2026-05-07 21:03 | 39.77002 | -75.03154 | 17678 ft | 415 kts | 27° |
| 2026-05-07 21:03 | 39.79385 | -75.01119 | 17276 ft | 405 kts | 27° |
| 2026-05-07 21:03 | 39.80929 | -74.99792 | 17015 ft | 401 kts | 27° |
| 2026-05-07 21:03 | 39.84063 | -74.97093 | 16660 ft | 408 kts | 27° |
| 2026-05-07 21:04 | 39.86432 | -74.95019 | 16295 ft | 412 kts | 29° |
| 2026-05-07 21:04 | 39.87983 | -74.93614 | 16040 ft | 409 kts | 29° |
| 2026-05-07 21:04 | 39.90298 | -74.91495 | 15678 ft | 404 kts | 29° |
| 2026-05-07 21:04 | 39.93256 | -74.88523 | 15189 ft | 405 kts | 41° |
| 2026-05-07 21:05 | 39.94526 | -74.86713 | 14974 ft | 405 kts | 46° |
| 2026-05-07 21:05 | 39.96366 | -74.83937 | 14613 ft | 403 kts | 45° |
| 2026-05-07 21:05 | 39.98203 | -74.81209 | 14257 ft | 401 kts | 45° |
| 2026-05-07 21:05 | 40.00070 | -74.78507 | 13909 ft | 400 kts | 44° |
| 2026-05-07 21:06 | 40.01945 | -74.75827 | 13529 ft | 399 kts | 44° |
| 2026-05-07 21:06 | 40.03810 | -74.73161 | 13142 ft | 397 kts | 44° |
| 2026-05-07 21:06 | 40.05667 | -74.70500 | 12772 ft | 394 kts | 44° |
| 2026-05-07 21:06 | 40.07502 | -74.67864 | 12413 ft | 390 kts | 44° |
| 2026-05-07 21:07 | 40.09315 | -74.65255 | 12056 ft | 385 kts | 44° |
| 2026-05-07 21:07 | 40.11103 | -74.62681 | 11724 ft | 381 kts | 44° |
| 2026-05-07 21:07 | 40.12870 | -74.60135 | 11375 ft | 375 kts | 43° |
| 2026-05-07 21:07 | 40.14596 | -74.57645 | 11043 ft | 362 kts | 43° |
| 2026-05-07 21:08 | 40.16256 | -74.55252 | 10727 ft | 350 kts | 43° |
| 2026-05-07 21:08 | 40.17867 | -74.52925 | 10423 ft | 339 kts | 43° |
| 2026-05-07 21:08 | 40.19408 | -74.50698 | 10126 ft | 329 kts | 42° |
| 2026-05-07 21:08 | 40.20956 | -74.48522 | 9953 ft | 314 kts | 39° |
| 2026-05-07 21:09 | 40.22468 | -74.46602 | 9754 ft | 303 kts | 37° |
| 2026-05-07 21:09 | 40.23982 | -74.44736 | 9573 ft | 296 kts | 37° |
| 2026-05-07 21:09 | 40.25465 | -74.42896 | 9413 ft | 293 kts | 37° |
| 2026-05-07 21:09 | 40.26953 | -74.41034 | 9273 ft | 300 kts | 38° |
| 2026-05-07 21:10 | 40.28472 | -74.39123 | 9107 ft | 304 kts | 38° |
| 2026-05-07 21:10 | 40.29993 | -74.37200 | 8935 ft | 303 kts | 39° |
| 2026-05-07 21:10 | 40.31497 | -74.35292 | 8755 ft | 297 kts | 39° |
| 2026-05-07 21:10 | 40.32962 | -74.33435 | 8602 ft | 291 kts | 39° |
| 2026-05-07 21:11 | 40.34409 | -74.31601 | 8445 ft | 288 kts | 39° |
| 2026-05-07 21:11 | 40.35843 | -74.29784 | 8294 ft | 286 kts | 39° |
| 2026-05-07 21:11 | 40.38671 | -74.26198 | 7993 ft | 283 kts | 39° |
| 2026-05-07 21:12 | 40.40094 | -74.24390 | 7842 ft | 281 kts | 40° |
| 2026-05-07 21:12 | 40.41461 | -74.22651 | 7547 ft | 275 kts | 40° |
| 2026-05-07 21:12 | 40.42848 | -74.20889 | 7161 ft | 273 kts | 41° |
| 2026-05-07 21:12 | 40.44196 | -74.19174 | 6866 ft | 269 kts | 41° |
| 2026-05-07 21:13 | 40.45529 | -74.17475 | 6565 ft | 265 kts | 41° |
| 2026-05-07 21:13 | 40.46841 | -74.15805 | 6212 ft | 260 kts | 41° |
| 2026-05-07 21:13 | 40.48131 | -74.14161 | 5783 ft | 258 kts | 42° |
| 2026-05-07 21:13 | 40.49354 | -74.12602 | 5437 ft | 255 kts | 42° |
| 2026-05-07 21:14 | 40.50620 | -74.10986 | 5197 ft | 252 kts | 42° |
| 2026-05-07 21:14 | 40.51882 | -74.09389 | 4981 ft | 250 kts | 39° |
| 2026-05-07 21:14 | 40.53287 | -74.08034 | 4795 ft | 252 kts | 30° |
| 2026-05-07 21:14 | 40.54788 | -74.06797 | 4600 ft | 257 kts | 29° |
| 2026-05-07 21:15 | 40.56316 | -74.05555 | 4383 ft | 258 kts | 30° |
| 2026-05-07 21:15 | 40.57835 | -74.04305 | 4158 ft | 255 kts | 30° |
| 2026-05-07 21:15 | 40.59322 | -74.03066 | 3954 ft | 250 kts | 30° |
| 2026-05-07 21:15 | 40.60774 | -74.01845 | 3775 ft | 247 kts | 31° |
| 2026-05-07 21:16 | 40.62212 | -74.00627 | 3589 ft | 244 kts | 30° |
| 2026-05-07 21:16 | 40.63631 | -73.99441 | 3292 ft | 237 kts | 30° |
| 2026-05-07 21:16 | 40.64988 | -73.98315 | 2947 ft | 230 kts | 30° |
| 2026-05-07 21:16 | 40.66314 | -73.97213 | 2610 ft | 220 kts | 30° |
| 2026-05-07 21:17 | 40.67570 | -73.96169 | 2340 ft | 202 kts | 30° |
| 2026-05-07 21:17 | 40.68707 | -73.95228 | 2036 ft | 189 kts | 29° |
| 2026-05-07 21:17 | 40.69782 | -73.94331 | 1764 ft | 176 kts | 30° |
| 2026-05-07 21:17 | 40.70771 | -73.93509 | 1562 ft | 159 kts | 28° |
| 2026-05-07 21:18 | 40.71668 | -73.92767 | 1347 ft | 146 kts | 28° |
| 2026-05-07 21:18 | 40.72515 | -73.92065 | 1120 ft | 142 kts | 28° |
| 2026-05-07 21:18 | 40.73342 | -73.91376 | 866 ft | 140 kts | 28° |
| 2026-05-07 21:18 | 40.74147 | -73.90653 | 692 ft | 142 kts | 28° |
| 2026-05-07 21:19 | 40.74986 | -73.89975 | 533 ft | 143 kts | 27° |
| 2026-05-07 21:19 | 40.75834 | -73.89287 | 317 ft | 142 kts | 27° |
| 2026-05-07 21:19 | 40.76677 | -73.88609 | 109 ft | 142 kts | 27° |
| 2026-05-07 21:19 | 40.77481 | -73.87952 | 23 ft | 117 kts | 31° |
| 2026-05-07 21:20 | 40.77980 | -73.87535 | 15 ft | 41 kts | 32° |
| 2026-05-07 21:20 | 40.78143 | -73.87400 | 14 ft | 20 kts | 32° |
| 2026-05-07 21:20 | 40.78235 | -73.87324 | 16 ft | 11 kts | 37° |
| 2026-05-07 21:20 | 40.78246 | -73.87266 | 16 ft | 6 kts | 111° |
| 2026-05-07 21:21 | 40.78216 | -73.87225 | 16 ft | 6 kts | 147° |